Time;durP1;ratioP1;P1;durP2;ratioP2;P2;SDS_P1;SDS_P2;PMS_P1;PMS_P2;Temp;Humidity;BMP_temperature;BMP_pressure;BME280_temperature;BME280_humidity;BME280_pressure;Samples;Min_cycle;Max_cycle;Signal;HPM_P1;HPM_P2
2023/02/23 00:00:43;;;;;;;10.45;4.88;;;;;;;10.95;61.86;99817.47;5034940;28;20051;-64
2023/02/23 00:03:08;;;;;;;9.35;5.80;;;;;;;10.89;62.62;99818.94;5033986;28;20355;-62
2023/02/23 00:05:36;;;;;;;10.73;5.57;;;;;;;10.91;62.27;99821.44;5034088;28;20049;-62
2023/02/23 00:08:01;;;;;;;8.85;5.15;;;;;;;10.97;62.41;99823.44;5030117;28;20363;-63
2023/02/23 00:10:30;;;;;;;9.02;5.32;;;;;;;10.97;62.22;99820.78;5036104;28;20045;-62
2023/02/23 00:12:59;;;;;;;8.82;5.30;;;;;;;10.91;63.16;99821.44;5034513;28;20029;-62
2023/02/23 00:15:28;;;;;;;8.07;5.68;;;;;;;11.02;62.31;99823.78;5035162;28;20033;-62
2023/02/23 00:17:55;;;;;;;7.90;5.53;;;;;;;10.79;62.20;99813.78;5031786;28;20314;-62
2023/02/23 00:20:26;;;;;;;9.15;5.38;;;;;;;10.78;62.85;99828.03;5033866;28;20368;-62
2023/02/23 00:22:56;;;;;;;9.07;5.20;;;;;;;10.87;61.97;99827.06;5034164;28;20035;-64
2023/02/23 00:25:23;;;;;;;6.28;4.72;;;;;;;10.95;62.42;99825.41;5033016;28;20345;-65
2023/02/23 00:27:50;;;;;;;10.18;5.03;;;;;;;11.09;61.38;99822.97;5035563;28;20036;-63
2023/02/23 00:30:18;;;;;;;7.20;5.05;;;;;;;11.10;61.65;99829.91;5034905;28;20397;-62
2023/02/23 00:32:44;;;;;;;8.55;4.75;;;;;;;11.22;60.74;99830.44;5034056;28;20068;-63
2023/02/23 00:35:15;;;;;;;9.20;5.22;;;;;;;11.33;60.77;99831.94;5033856;28;20029;-62
2023/02/23 00:37:45;;;;;;;7.38;5.05;;;;;;;10.71;62.19;99837.59;5035096;28;20149;-63
2023/02/23 00:40:13;;;;;;;7.05;5.38;;;;;;;10.98;62.04;99830.38;5033338;28;20029;-62
2023/02/23 00:42:39;;;;;;;5.97;4.60;;;;;;;11.18;61.33;99831.75;5033492;28;20079;-63
2023/02/23 00:45:09;;;;;;;9.02;4.53;;;;;;;11.23;60.99;99829.44;5035201;28;20112;-62
2023/02/23 00:47:35;;;;;;;5.90;4.60;;;;;;;11.32;60.49;99831.09;5033505;28;20037;-63
2023/02/23 00:50:01;;;;;;;7.65;4.30;;;;;;;11.43;59.78;99828.13;5033779;28;20376;-64
2023/02/23 00:52:27;;;;;;;6.65;4.88;;;;;;;11.56;59.39;99832.97;5034317;28;20035;-65
2023/02/23 00:54:54;;;;;;;7.00;4.97;;;;;;;11.66;59.52;99833.63;5035426;28;20040;-62
2023/02/23 00:57:21;;;;;;;7.57;5.15;;;;;;;11.63;59.24;99828.66;5033360;28;20350;-62
2023/02/23 00:59:46;;;;;;;7.50;4.35;;;;;;;11.63;59.36;99822.53;5033586;28;20029;-62
2023/02/23 01:02:12;;;;;;;8.35;5.15;;;;;;;11.66;59.20;99838.94;5032319;28;20358;-64
2023/02/23 01:04:37;;;;;;;6.03;4.63;;;;;;;11.59;58.06;99837.94;5033712;28;20079;-62
2023/02/23 01:07:05;;;;;;;9.40;5.40;;;;;;;11.47;58.17;99839.25;5032697;28;20048;-62
2023/02/23 01:09:31;;;;;;;12.25;7.57;;;;;;;11.53;59.40;99841.25;5033406;28;20041;-63
2023/02/23 01:12:00;;;;;;;14.65;8.60;;;;;;;11.55;58.52;99836.59;5034502;28;20247;-62
2023/02/23 01:14:26;;;;;;;14.63;7.93;;;;;;;11.56;58.51;99843.56;5034485;28;20030;-64
2023/02/23 01:16:52;;;;;;;9.02;7.18;;;;;;;11.49;58.53;99846.06;5033882;28;20033;-65
2023/02/23 01:19:18;;;;;;;33.45;15.50;;;;;;;11.39;58.88;99840.06;5032845;28;20220;-62
2023/02/23 01:21:43;;;;;;;13.70;6.50;;;;;;;11.27;59.72;99836.06;5033169;28;20037;-63
2023/02/23 01:24:10;;;;;;;12.70;5.95;;;;;;;11.41;59.34;99842.53;5032515;28;20045;-62
2023/02/23 01:26:42;;;;;;;10.18;5.22;;;;;;;11.49;59.86;99846.06;5029876;28;20345;-62
2023/02/23 01:29:13;;;;;;;6.82;5.03;;;;;;;11.52;59.50;99842.25;5033062;28;20056;-63
2023/02/23 01:31:43;;;;;;;11.18;5.88;;;;;;;11.50;57.63;99846.88;5034351;28;20235;-63
2023/02/23 01:34:11;;;;;;;7.25;5.07;;;;;;;11.49;57.89;99840.75;5032910;28;20033;-62
2023/02/23 01:36:37;;;;;;;7.30;5.20;;;;;;;11.56;59.15;99840.09;5033197;28;20646;-62
2023/02/23 01:39:06;;;;;;;7.97;5.00;;;;;;;11.66;59.59;99841.56;5033796;28;20513;-64
2023/02/23 01:41:33;;;;;;;7.72;5.20;;;;;;;11.63;58.26;99841.09;5032991;28;20219;-65
2023/02/23 01:44:05;;;;;;;9.60;5.32;;;;;;;11.58;58.92;99835.44;5033530;28;20049;-63
2023/02/23 01:46:40;;;;;;;8.18;4.78;;;;;;;11.50;57.90;99839.75;5030823;28;20051;-63
2023/02/23 01:49:11;;;;;;;10.35;4.82;;;;;;;11.45;58.08;99846.56;5034442;28;20048;-63
2023/02/23 01:51:44;;;;;;;11.45;6.60;;;;;;;11.43;58.10;99845.84;5036151;28;20037;-62
2023/02/23 01:54:17;;;;;;;6.80;5.20;;;;;;;11.48;58.29;99841.75;5036938;28;20360;-63
2023/02/23 01:56:56;;;;;;;14.93;7.13;;;;;;;11.49;57.90;99846.06;5038170;28;20141;-63
2023/02/23 01:59:27;;;;;;;8.57;5.15;;;;;;;11.51;58.03;99843.25;5036086;28;20041;-62
2023/02/23 02:01:54;;;;;;;8.23;4.97;;;;;;;11.55;58.43;99849.03;5036083;28;20025;-63
2023/02/23 02:04:21;;;;;;;7.63;4.85;;;;;;;11.55;59.17;99847.22;5031577;28;20041;-65
2023/02/23 02:06:52;;;;;;;9.40;4.88;;;;;;;11.59;58.26;99842.41;5035950;28;20077;-65
2023/02/23 02:09:24;;;;;;;7.50;4.80;;;;;;;11.53;54.71;99846.56;5034727;28;20343;-63
2023/02/23 02:11:52;;;;;;;8.98;5.20;;;;;;;11.39;55.64;99845.34;5033057;28;20395;-62
2023/02/23 02:14:25;;;;;;;7.00;4.60;;;;;;;11.32;56.22;99854.13;5037195;28;20090;-62
2023/02/23 02:17:15;;;;;;;8.00;5.43;;;;;;;11.25;56.30;99846.00;5036409;28;20336;-62
2023/02/23 02:20:27;;;;;;;7.95;4.75;;;;;;;11.15;56.43;99858.59;5034669;28;20035;-63
2023/02/23 02:23:08;;;;;;;7.40;4.72;;;;;;;10.92;57.25;99860.19;5035703;28;20100;-63
2023/02/23 02:25:49;;;;;;;9.02;4.78;;;;;;;10.87;58.81;99858.03;5036514;28;20038;-63
2023/02/23 02:28:43;;;;;;;7.07;5.40;;;;;;;10.85;58.56;99855.53;5033368;28;20431;-62
2023/02/23 02:31:12;;;;;;;8.60;5.32;;;;;;;10.66;56.95;99865.56;5034389;28;20116;-64
2023/02/23 02:33:59;;;;;;;10.73;5.93;;;;;;;10.62;57.68;99859.75;5034136;28;20040;-65
2023/02/23 02:37:01;;;;;;;9.07;5.50;;;;;;;10.47;56.94;99862.16;5034812;28;20283;-62
2023/02/23 02:39:35;;;;;;;9.38;4.82;;;;;;;10.50;55.64;99861.84;5035532;28;20030;-62
2023/02/23 02:42:23;;;;;;;19.63;9.70;;;;;;;10.47;55.05;99862.16;5035961;28;20037;-64
2023/02/23 02:45:11;;;;;;;40.42;16.17;;;;;;;10.47;54.95;99870.13;5037043;28;20121;-63
2023/02/23 02:47:59;;;;;;;11.55;5.72;;;;;;;10.36;53.92;99864.22;5038112;28;20053;-63
2023/02/23 02:50:49;;;;;;;9.43;5.88;;;;;;;10.34;54.87;99866.22;5035652;28;20294;-62
2023/02/23 02:53:36;;;;;;;7.80;5.25;;;;;;;10.21;55.15;99869.28;5034599;28;20619;-63
2023/02/23 02:56:05;;;;;;;10.90;5.18;;;;;;;10.07;56.92;99873.31;5035007;28;20041;-64
2023/02/23 02:58:32;;;;;;;9.40;5.63;;;;;;;9.95;59.84;99866.59;5035612;28;20102;-64
2023/02/23 04:18:42;;;;;;;13.73;7.55;;;;;;;9.18;60.77;99899.78;5034850;28;20092;-64
2023/02/23 04:21:07;;;;;;;12.40;7.20;;;;;;;9.24;60.54;99899.19;5030811;28;20120;-65
2023/02/23 04:23:34;;;;;;;20.75;10.93;;;;;;;9.31;60.63;99901.22;5034653;28;20372;-65
2023/02/23 04:26:00;;;;;;;31.73;13.63;;;;;;;9.27;60.71;99903.34;5035337;28;20073;-65
2023/02/23 04:28:26;;;;;;;21.50;12.02;;;;;;;9.21;61.21;99903.94;5034476;28;20037;-65
2023/02/23 04:30:52;;;;;;;19.20;10.38;;;;;;;9.29;59.13;99904.84;5033917;28;20061;-64
2023/02/23 04:33:19;;;;;;;20.92;12.18;;;;;;;9.29;58.91;99904.03;5033400;28;20041;-65
2023/02/23 04:35:45;;;;;;;16.02;9.40;;;;;;;9.26;58.43;99909.59;5035467;28;20037;-65
2023/02/23 04:38:10;;;;;;;13.13;8.00;;;;;;;9.20;59.48;99912.84;5032824;28;20087;-64
2023/02/23 04:40:36;;;;;;;13.10;7.57;;;;;;;9.12;59.33;99912.75;5033064;28;20258;-64
2023/02/23 04:43:01;;;;;;;10.90;6.78;;;;;;;9.05;60.01;99915.16;5034001;28;20675;-64
2023/02/23 04:45:28;;;;;;;12.93;7.82;;;;;;;9.01;60.46;99916.44;5033288;28;20108;-65
2023/02/23 04:47:53;;;;;;;11.90;6.90;;;;;;;8.99;60.44;99914.94;5032268;28;20045;-64
2023/02/23 04:50:19;;;;;;;18.20;9.23;;;;;;;9.10;60.29;99918.19;5034461;28;20048;-65
2023/02/23 04:52:45;;;;;;;14.10;7.43;;;;;;;9.00;60.00;99924.50;5030957;28;20115;-65
2023/02/23 04:55:22;;;;;;;13.30;7.07;;;;;;;8.82;61.08;99925.28;5034047;28;20454;-64
2023/02/23 04:57:48;;;;;;;11.48;6.22;;;;;;;8.78;60.97;99918.66;5033686;28;20037;-65
2023/02/23 05:00:15;;;;;;;9.63;6.75;;;;;;;8.90;60.52;99920.13;5034392;28;20346;-65
2023/02/23 05:02:40;;;;;;;10.63;6.28;;;;;;;8.97;60.43;99912.44;5033113;28;20041;-64
2023/02/23 05:05:07;;;;;;;11.63;6.82;;;;;;;9.07;60.06;99925.59;5033710;28;20064;-65
2023/02/23 05:07:33;;;;;;;13.43;7.22;;;;;;;9.15;59.83;99920.38;5034186;28;20056;-65
2023/02/23 05:09:59;;;;;;;11.75;6.43;;;;;;;9.22;58.88;99926.75;5032880;28;20034;-65
2023/02/23 05:12:24;;;;;;;10.55;6.43;;;;;;;9.24;58.69;99930.91;5034016;28;20037;-66
2023/02/23 05:14:50;;;;;;;13.30;5.75;;;;;;;9.13;55.76;99935.56;5036174;28;20037;-65
2023/02/23 05:17:15;;;;;;;13.65;6.47;;;;;;;9.15;56.09;99937.06;5040350;28;20305;-65
2023/02/23 05:19:41;;;;;;;8.93;5.90;;;;;;;8.83;55.01;99941.97;5042130;28;20028;-65
2023/02/23 05:22:07;;;;;;;12.95;6.00;;;;;;;8.91;55.24;99939.44;5037940;28;20334;-64
2023/02/23 05:24:32;;;;;;;11.98;5.93;;;;;;;8.71;55.85;99946.59;5040314;28;20299;-64
2023/02/23 05:26:58;;;;;;;6.97;5.35;;;;;;;8.75;55.85;99949.78;5038818;28;20046;-64
2023/02/23 05:29:23;;;;;;;13.23;6.07;;;;;;;8.71;56.16;99958.97;5049785;28;20040;-65
2023/02/23 05:31:49;;;;;;;12.32;6.13;;;;;;;8.80;56.31;99955.47;5042689;28;20201;-65
2023/02/23 05:34:15;;;;;;;10.25;5.90;;;;;;;8.89;56.86;99963.34;5040782;28;20075;-66
2023/02/23 05:36:41;;;;;;;13.07;6.22;;;;;;;9.00;57.18;99964.13;5045706;28;20029;-65
2023/02/23 05:39:07;;;;;;;14.10;7.25;;;;;;;9.13;57.74;99969.91;5037030;28;20061;-64
2023/02/23 05:41:32;;;;;;;15.63;5.85;;;;;;;9.18;55.32;99967.66;5037064;28;20049;-64
2023/02/23 05:43:58;;;;;;;12.20;6.47;;;;;;;9.11;56.01;99982.41;5037737;28;20045;-65
2023/02/23 05:46:25;;;;;;;10.95;6.10;;;;;;;9.08;56.73;99988.84;5037987;28;20323;-65
2023/02/23 05:48:58;;;;;;;11.68;6.53;;;;;;;9.13;58.00;99983.94;5037104;28;20049;-65
2023/02/23 05:51:24;;;;;;;14.77;6.55;;;;;;;9.27;59.79;99987.91;5036784;28;20025;-65
2023/02/23 05:53:50;;;;;;;15.20;10.02;;;;;;;9.41;59.52;99990.06;5037315;28;20077;-65
2023/02/23 05:56:20;;;;;;;15.80;10.25;;;;;;;9.52;59.77;99992.50;5038365;28;20037;-66
2023/02/23 05:58:50;;;;;;;22.30;12.57;;;;;;;9.67;59.70;99994.63;5037609;28;20049;-66
2023/02/23 06:01:16;;;;;;;11.15;8.25;;;;;;;9.76;58.35;99991.91;5038014;28;20096;-65
2023/02/23 06:03:42;;;;;;;10.73;6.00;;;;;;;9.83;57.67;99998.25;5037327;28;20061;-65
2023/02/23 06:06:08;;;;;;;16.58;7.80;;;;;;;9.64;58.16;100006.34;5037324;28;20377;-65
2023/02/23 06:08:33;;;;;;;18.75;9.60;;;;;;;9.41;59.03;100005.09;5037287;28;20041;-64
2023/02/23 06:10:58;;;;;;;21.30;8.75;;;;;;;9.10;61.37;100015.94;5037961;28;20338;-64
2023/02/23 06:13:25;;;;;;;15.82;7.68;;;;;;;9.11;61.69;100014.97;5037111;28;20271;-66
2023/02/23 06:15:50;;;;;;;17.73;10.13;;;;;;;9.10;62.05;100018.56;5036989;28;20064;-65
2023/02/23 06:18:16;;;;;;;26.73;13.60;;;;;;;8.98;63.10;100021.53;5036850;28;20033;-65
2023/02/23 06:20:42;;;;;;;22.67;13.20;;;;;;;8.99;63.64;100017.94;5037296;28;20373;-65
2023/02/23 06:23:08;;;;;;;20.67;11.82;;;;;;;9.05;64.47;100026.09;5037001;28;20052;-65
2023/02/23 06:25:34;;;;;;;19.00;11.55;;;;;;;9.29;64.56;100023.75;5038021;28;20029;-65
2023/02/23 06:27:59;;;;;;;29.20;18.48;;;;;;;9.49;64.25;100019.22;5036763;28;20030;-65
2023/02/23 06:30:25;;;;;;;37.70;21.67;;;;;;;9.56;63.98;100022.13;5038000;28;20029;-65
2023/02/23 06:32:50;;;;;;;41.00;23.50;;;;;;;9.66;63.85;100022.06;5037302;28;20045;-65
2023/02/23 06:35:16;;;;;;;29.30;19.60;;;;;;;9.79;63.75;100019.88;5036918;28;20038;-65
2023/02/23 06:37:42;;;;;;;23.38;15.02;;;;;;;9.78;64.84;100026.16;5039177;28;20060;-66
2023/02/23 06:40:08;;;;;;;26.58;13.90;;;;;;;9.81;64.81;100021.38;5040838;28;20057;-66
2023/02/23 06:42:34;;;;;;;15.77;8.43;;;;;;;9.68;65.48;100022.72;5040593;28;20120;-65
2023/02/23 06:45:00;;;;;;;17.13;11.27;;;;;;;9.62;66.27;100024.16;5040558;28;20041;-65
2023/02/23 06:47:26;;;;;;;19.55;12.05;;;;;;;9.49;66.83;100031.63;5040532;28;20080;-65
2023/02/23 06:49:51;;;;;;;16.55;10.73;;;;;;;9.86;65.88;100028.88;5040314;28;20231;-65
2023/02/23 06:52:17;;;;;;;14.57;9.65;;;;;;;10.12;63.84;100035.06;5040641;28;20692;-65
2023/02/23 06:54:43;;;;;;;14.48;8.55;;;;;;;10.19;64.30;100030.81;5041021;28;20033;-65
2023/02/23 06:57:09;;;;;;;10.20;7.32;;;;;;;10.23;64.19;100032.22;5040933;28;20044;-65
2023/02/23 06:59:35;;;;;;;14.23;8.75;;;;;;;10.34;63.66;100033.78;5040624;28;20033;-65
2023/02/23 07:02:01;;;;;;;13.38;7.93;;;;;;;10.55;62.67;100038.78;5040534;28;20037;-65
2023/02/23 07:04:27;;;;;;;14.75;6.15;;;;;;;10.35;63.36;100035.44;5040527;28;20254;-65
2023/02/23 07:06:53;;;;;;;10.88;6.45;;;;;;;10.40;63.10;100035.84;5039722;28;20053;-65
2023/02/23 07:09:18;;;;;;;13.65;6.55;;;;;;;10.72;62.60;100043.19;5040613;28;20246;-65
2023/02/23 07:11:44;;;;;;;8.82;5.40;;;;;;;10.70;62.36;100037.22;5040936;28;20037;-65
2023/02/23 07:14:10;;;;;;;8.35;4.90;;;;;;;10.73;61.15;100034.25;5040407;28;20223;-66
2023/02/23 07:16:37;;;;;;;10.20;5.43;;;;;;;10.72;62.41;100040.56;5040636;28;20353;-65
2023/02/23 07:19:03;;;;;;;9.40;5.70;;;;;;;11.02;61.18;100044.53;5040257;28;20362;-65
2023/02/23 07:21:30;;;;;;;8.75;5.80;;;;;;;11.23;60.46;100040.66;5039737;28;20045;-65
2023/02/23 07:23:56;;;;;;;9.63;5.70;;;;;;;10.76;62.33;100043.72;5040495;28;20041;-65
2023/02/23 07:26:22;;;;;;;12.07;6.35;;;;;;;10.60;62.93;100040.97;5040515;28;20029;-64
2023/02/23 07:28:47;;;;;;;12.27;6.32;;;;;;;10.63;62.86;100044.13;5039993;28;20037;-65
2023/02/23 07:31:12;;;;;;;12.98;7.15;;;;;;;10.86;62.87;100044.44;5040917;28;20037;-65
2023/02/23 07:33:38;;;;;;;10.27;7.15;;;;;;;10.81;62.29;100046.72;5040171;28;20045;-65
2023/02/23 07:36:04;;;;;;;8.85;5.47;;;;;;;11.14;61.71;100048.56;5039951;28;20319;-65
2023/02/23 07:38:29;;;;;;;9.38;5.40;;;;;;;10.77;63.16;100040.91;5039797;28;20037;-65
2023/02/23 07:40:55;;;;;;;8.50;5.55;;;;;;;10.70;63.84;100037.22;5040107;28;20033;-64
2023/02/23 07:43:21;;;;;;;7.60;5.32;;;;;;;10.48;64.24;100045.69;5039373;28;20033;-64
2023/02/23 07:45:47;;;;;;;9.30;5.60;;;;;;;10.83;63.33;100044.75;5039231;28;20040;-64
2023/02/23 07:48:13;;;;;;;9.00;5.10;;;;;;;10.87;63.23;100046.94;5038535;28;20362;-65
2023/02/23 07:50:39;;;;;;;9.32;5.80;;;;;;;11.19;62.39;100040.16;5038858;28;20037;-65
2023/02/23 07:53:05;;;;;;;8.68;5.50;;;;;;;11.09;62.41;100039.44;5039469;28;20281;-66
2023/02/23 07:55:30;;;;;;;8.27;5.03;;;;;;;10.81;63.27;100034.31;5039911;28;20097;-64
2023/02/23 07:57:56;;;;;;;8.23;5.15;;;;;;;10.81;64.40;100039.63;5039003;28;20045;-64
2023/02/23 08:00:23;;;;;;;7.13;5.40;;;;;;;10.83;64.77;100035.00;5039561;28;20048;-64
2023/02/23 08:02:49;;;;;;;8.75;5.47;;;;;;;10.88;65.03;100040.66;5039920;28;20045;-64
2023/02/23 08:05:15;;;;;;;9.40;5.57;;;;;;;10.60;64.57;100035.66;5039124;28;20067;-64
2023/02/23 08:07:41;;;;;;;12.13;5.90;;;;;;;10.74;65.06;100027.97;5039278;28;20057;-64
2023/02/23 08:10:06;;;;;;;8.55;5.47;;;;;;;10.94;65.31;100035.72;5039387;28;20095;-64
2023/02/23 08:12:33;;;;;;;7.68;5.07;;;;;;;11.05;65.07;100038.09;5039206;28;20037;-64
2023/02/23 08:14:58;;;;;;;9.98;4.90;;;;;;;11.11;63.11;100032.16;5038636;28;20255;-64
2023/02/23 08:17:24;;;;;;;12.13;5.18;;;;;;;11.04;64.32;100034.59;5039126;28;20293;-64
2023/02/23 08:19:50;;;;;;;11.02;4.75;;;;;;;10.79;65.49;100030.16;5038862;28;20317;-65
2023/02/23 08:22:15;;;;;;;7.88;4.68;;;;;;;10.91;65.23;100039.50;5038466;28;20231;-65
2023/02/23 08:24:40;;;;;;;7.00;4.68;;;;;;;10.95;65.26;100030.25;5038560;28;20033;-66
2023/02/23 08:27:06;;;;;;;8.48;5.30;;;;;;;10.91;65.07;100022.78;5039161;28;20037;-66
2023/02/23 08:29:33;;;;;;;8.52;4.40;;;;;;;11.13;65.54;100022.22;5038361;28;20040;-65
2023/02/23 08:32:01;;;;;;;7.20;5.10;;;;;;;11.25;64.20;100031.56;5038898;28;20083;-65
2023/02/23 08:34:27;;;;;;;6.97;4.32;;;;;;;11.09;64.13;100040.25;5039135;28;20127;-65
2023/02/23 08:36:52;;;;;;;9.02;4.10;;;;;;;11.25;64.26;100039.50;5039252;28;20293;-65
2023/02/23 08:39:18;;;;;;;8.98;4.20;;;;;;;11.13;65.33;100038.97;5039096;28;20033;-65
2023/02/23 08:41:43;;;;;;;8.68;4.80;;;;;;;11.18;66.50;100035.84;5039002;28;20033;-65
2023/02/23 08:44:09;;;;;;;12.23;5.30;;;;;;;11.38;64.61;100037.25;5038509;28;20034;-65
2023/02/23 08:46:35;;;;;;;12.15;6.70;;;;;;;11.45;63.92;100045.41;5038958;28;20080;-64
2023/02/23 08:49:00;;;;;;;9.27;5.55;;;;;;;11.25;65.02;100041.31;5037126;28;20040;-64
2023/02/23 08:51:26;;;;;;;7.93;4.88;;;;;;;11.28;65.39;100047.16;5038025;28;20258;-64
2023/02/23 08:53:51;;;;;;;9.30;5.25;;;;;;;11.27;64.61;100056.09;5037900;28;20088;-63
2023/02/23 08:56:17;;;;;;;8.05;4.50;;;;;;;11.22;64.67;100045.13;5038577;28;20025;-66
2023/02/23 08:58:42;;;;;;;7.32;4.88;;;;;;;11.13;65.23;100046.09;5038192;28;20037;-64
2023/02/23 09:01:16;;;;;;;6.78;4.22;;;;;;;11.28;63.94;100051.63;5038194;28;20033;-65
2023/02/23 09:03:41;;;;;;;;;;;;;;;11.39;63.67;100051.31;5039021;28;20059;-65
2023/02/23 09:06:12;;;;;;;8.23;4.57;;;;;;;11.32;64.19;100045.84;5037644;28;20238;-65
2023/02/23 09:08:38;;;;;;;9.35;4.63;;;;;;;11.23;64.81;100049.44;5038037;28;20227;-63
2023/02/23 09:11:04;;;;;;;10.02;5.20;;;;;;;11.36;65.04;100033.09;5038527;28;20041;-63
2023/02/23 09:13:29;;;;;;;8.50;4.50;;;;;;;11.58;63.50;100052.91;5038204;28;20029;-64
2023/02/23 09:15:54;;;;;;;7.20;5.07;;;;;;;11.53;63.66;100029.53;5037879;28;20052;-65
2023/02/23 09:18:22;;;;;;;9.07;4.78;;;;;;;11.59;63.01;100036.00;5038051;28;20049;-66
2023/02/23 09:20:49;;;;;;;7.40;4.70;;;;;;;11.69;63.51;100026.09;5037537;28;20037;-65
2023/02/23 09:23:14;;;;;;;6.65;4.32;;;;;;;11.60;62.61;100032.38;5037939;28;20083;-64
2023/02/23 09:25:42;;;;;;;8.07;4.30;;;;;;;11.59;64.12;100028.88;5038234;28;20068;-64
2023/02/23 09:28:10;;;;;;;8.73;4.80;;;;;;;11.73;63.01;100038.03;5037786;28;20063;-64
2023/02/23 09:30:36;;;;;;;11.07;5.00;;;;;;;11.74;63.13;100029.91;5038203;28;20037;-64
2023/02/23 09:33:02;;;;;;;8.32;4.50;;;;;;;11.72;62.83;100034.56;5037927;28;20261;-64
2023/02/23 09:35:27;;;;;;;8.43;4.20;;;;;;;11.82;63.01;100031.78;5037772;28;20029;-64
2023/02/23 09:37:55;;;;;;;7.72;4.57;;;;;;;11.71;63.41;100030.25;5038100;28;20041;-65
2023/02/23 09:40:43;;;;;;;6.55;4.25;;;;;;;11.63;64.04;100026.75;5037697;28;20060;-64
2023/02/23 09:43:17;;;;;;;6.78;4.60;;;;;;;11.80;64.17;100031.13;5036876;28;20037;-64
2023/02/23 09:45:49;;;;;;;10.57;5.43;;;;;;;11.95;62.69;100023.34;5038163;28;20044;-64
2023/02/23 09:48:19;;;;;;;8.48;4.80;;;;;;;11.92;63.26;100031.66;5037795;28;20044;-64
2023/02/23 09:50:51;;;;;;;5.65;3.97;;;;;;;11.90;63.10;100028.31;5037059;28;20041;-64
2023/02/23 09:53:23;;;;;;;6.78;4.60;;;;;;;11.97;63.69;100018.72;5037254;28;20358;-64
2023/02/23 09:55:50;;;;;;;8.18;5.03;;;;;;;12.13;62.40;100021.38;5035697;28;20353;-64
2023/02/23 09:58:23;;;;;;;8.57;4.50;;;;;;;12.23;63.34;100015.91;5037393;28;20048;-64
2023/02/23 10:01:23;;;;;;;9.80;5.70;;;;;;;12.22;61.48;100008.94;5038157;28;20037;-64
2023/02/23 10:04:24;;;;;;;7.75;4.90;;;;;;;12.34;61.05;100008.44;5037617;28;20152;-64
2023/02/23 10:07:05;;;;;;;7.38;4.20;;;;;;;12.38;60.86;100014.25;5037213;28;20050;-64
2023/02/23 10:10:02;;;;;;;6.53;4.57;;;;;;;12.40;62.72;100005.09;5037423;28;20179;-64
2023/02/23 10:13:08;;;;;;;8.93;5.38;;;;;;;12.37;62.38;99999.31;5037971;28;20052;-65
2023/02/23 10:15:48;;;;;;;9.52;4.70;;;;;;;12.35;62.58;100007.44;5048054;28;20048;-64
2023/02/23 10:18:51;;;;;;;7.38;4.78;;;;;;;12.44;62.30;99998.47;5040890;28;20055;-64
2023/02/23 10:21:37;;;;;;;7.65;3.80;;;;;;;12.37;61.92;99991.34;5038347;28;20350;-64
2023/02/23 10:24:11;;;;;;;8.02;5.15;;;;;;;12.59;61.65;99982.69;5040913;28;20087;-64
2023/02/23 10:26:51;;;;;;;10.82;6.32;;;;;;;12.60;62.25;99989.69;5041178;28;20037;-64
2023/02/23 10:29:40;;;;;;;9.40;4.82;;;;;;;12.64;61.59;99982.19;5040131;28;20235;-64
2023/02/23 10:32:12;;;;;;;8.52;5.57;;;;;;;12.80;61.29;99976.84;5040102;28;20227;-64
2023/02/23 10:34:39;;;;;;;10.30;5.68;;;;;;;12.87;60.07;99977.81;5040165;28;20052;-64
2023/02/23 10:37:10;;;;;;;10.43;5.40;;;;;;;12.85;61.47;99977.16;5040724;28;20067;-64
2023/02/23 10:39:35;;;;;;;7.38;5.40;;;;;;;12.87;62.66;99969.00;5040671;28;20044;-64
2023/02/23 10:42:05;;;;;;;9.82;5.15;;;;;;;12.96;60.61;99970.63;5039601;28;20420;-64
2023/02/23 10:44:31;;;;;;;8.23;5.97;;;;;;;12.85;61.08;99965.69;5040251;28;20338;-64
2023/02/23 10:47:04;;;;;;;11.20;5.93;;;;;;;13.00;61.60;99961.31;5040480;28;20037;-64
2023/02/23 10:49:56;;;;;;;9.07;5.40;;;;;;;13.12;60.00;99959.94;5040295;28;20037;-65
2023/02/23 10:52:29;;;;;;;8.40;5.35;;;;;;;13.10;60.59;99961.94;5038225;28;20168;-64
2023/02/23 10:54:55;;;;;;;7.03;4.70;;;;;;;13.22;59.95;99957.09;5039543;28;20033;-64
2023/02/23 10:57:31;;;;;;;10.88;5.43;;;;;;;13.12;60.34;99954.63;5035169;28;20060;-64
2023/02/23 10:59:59;;;;;;;10.07;6.32;;;;;;;13.11;60.28;99952.97;5036475;28;20037;-64
2023/02/23 11:02:25;;;;;;;7.93;4.82;;;;;;;13.04;61.32;99952.00;5036048;28;20111;-64
2023/02/23 11:04:54;;;;;;;7.22;5.00;;;;;;;13.25;61.32;99951.44;5035774;28;20064;-64
2023/02/23 11:07:28;;;;;;;7.13;4.07;;;;;;;13.32;61.73;99945.25;5030597;28;20263;-64
2023/02/23 11:09:55;;;;;;;8.45;4.30;;;;;;;13.42;60.44;99947.69;5034274;28;20368;-64
2023/02/23 11:12:40;;;;;;;8.63;4.00;;;;;;;13.46;60.33;99948.16;5036184;28;20105;-64
2023/02/23 11:15:26;;;;;;;5.82;4.13;;;;;;;13.52;60.05;99950.94;5035536;28;20037;-64
2023/02/23 11:17:57;;;;;;;7.80;4.03;;;;;;;13.65;59.59;99937.91;5034395;28;20362;-64
2023/02/23 11:20:34;;;;;;;5.55;3.80;;;;;;;13.57;60.35;99932.66;5036613;28;20712;-64
2023/02/23 11:23:36;;;;;;;9.43;5.00;;;;;;;13.62;62.89;99932.94;5034545;28;20048;-65
2023/02/23 11:26:18;;;;;;;7.30;5.28;;;;;;;13.43;61.52;99930.72;5035658;28;20239;-65
2023/02/23 11:28:53;;;;;;;8.60;4.78;;;;;;;13.62;61.85;99938.28;5035833;28;20255;-64
2023/02/23 11:31:22;;;;;;;6.63;4.60;;;;;;;13.45;61.68;99939.34;5034239;28;20052;-64
2023/02/23 11:33:48;;;;;;;7.88;4.03;;;;;;;13.51;61.37;99936.00;5034944;28;20339;-64
2023/02/23 11:36:23;;;;;;;7.50;4.57;;;;;;;13.26;61.96;99932.66;5035888;28;20339;-64
2023/02/23 11:39:22;;;;;;;7.80;4.40;;;;;;;13.41;62.44;99932.72;5036179;28;20049;-64
2023/02/23 11:42:09;;;;;;;7.78;4.68;;;;;;;13.21;62.21;99936.84;5035277;28;20064;-64
2023/02/23 11:44:34;;;;;;;6.15;4.05;;;;;;;13.27;63.01;99936.97;5034095;28;20052;-64
2023/02/23 11:47:02;;;;;;;9.57;4.88;;;;;;;13.14;63.00;99939.31;5034889;28;20033;-64
2023/02/23 11:49:34;;;;;;;9.32;4.63;;;;;;;13.27;65.28;99942.28;5035450;28;20116;-64
2023/02/23 11:52:00;;;;;;;11.43;5.40;;;;;;;13.15;65.10;99926.84;5036015;28;20060;-64
2023/02/23 11:54:29;;;;;;;8.98;5.55;;;;;;;13.20;64.20;99929.84;5034332;28;20026;-64
2023/02/23 11:56:56;;;;;;;8.98;5.10;;;;;;;13.13;65.41;99934.19;5028993;28;20209;-64
2023/02/23 11:59:43;;;;;;;11.30;6.43;;;;;;;13.04;65.89;99931.56;5036503;28;20040;-65
2023/02/23 12:02:27;;;;;;;10.55;5.53;;;;;;;12.96;65.54;99939.56;5034896;28;20109;-65
2023/02/23 12:05:08;;;;;;;13.45;8.63;;;;;;;12.99;67.41;99928.59;5035238;28;20045;-64
2023/02/23 12:07:42;;;;;;;14.43;8.43;;;;;;;13.05;67.99;99935.88;5035648;28;20045;-64
2023/02/23 12:10:19;;;;;;;13.15;7.85;;;;;;;12.97;66.75;99930.59;5035906;28;20269;-64
2023/02/23 12:13:03;;;;;;;11.13;6.70;;;;;;;12.88;67.69;99933.47;5034404;28;20049;-64
2023/02/23 12:15:49;;;;;;;14.75;8.23;;;;;;;13.08;66.53;99927.56;5033665;28;20099;-64
2023/02/23 12:18:52;;;;;;;15.60;7.68;;;;;;;13.09;66.61;99939.03;5033980;28;20250;-64
2023/02/23 12:21:32;;;;;;;14.35;9.05;;;;;;;12.97;67.61;99927.13;5032128;28;20037;-64
2023/02/23 12:24:07;;;;;;;18.63;9.63;;;;;;;12.89;68.49;99935.94;5029875;28;20117;-64
2023/02/23 12:26:42;;;;;;;19.05;11.00;;;;;;;12.98;69.11;99928.78;5033152;28;20048;-64
2023/02/23 12:29:31;;;;;;;22.38;12.98;;;;;;;12.90;70.61;99936.78;5029998;28;20391;-64
2023/02/23 12:32:01;;;;;;;19.25;10.07;;;;;;;12.99;68.55;99928.59;5032442;28;20037;-64
2023/02/23 12:34:35;;;;;;;17.58;9.60;;;;;;;12.82;69.61;99942.94;5033043;28;20033;-65
2023/02/23 12:37:27;;;;;;;24.10;12.48;;;;;;;12.78;70.21;99945.13;5030507;28;20092;-65
2023/02/23 12:40:20;;;;;;;18.70;9.93;;;;;;;12.72;68.77;99944.97;5033884;28;20288;-64
2023/02/23 12:43:04;;;;;;;18.58;10.55;;;;;;;12.83;69.50;99938.47;5032297;28;20076;-64
2023/02/23 12:45:40;;;;;;;15.93;9.13;;;;;;;12.67;70.19;99945.50;5031554;28;20115;-64
2023/02/23 12:48:24;;;;;;;25.77;12.75;;;;;;;12.71;71.63;99944.16;5034512;28;20107;-64
2023/02/23 12:50:55;;;;;;;;;;;;;;;12.65;74.11;99954.63;5035075;28;20335;-64
2023/02/23 12:53:40;;;;;;;28.75;13.70;;;;;;;12.56;75.47;99945.03;5033623;28;20231;-64
2023/02/23 12:56:20;;;;;;;21.52;11.25;;;;;;;12.56;75.34;99953.00;5031788;28;20060;-64
2023/02/23 12:59:12;;;;;;;22.05;9.00;;;;;;;12.49;73.71;99970.59;5030917;28;20045;-65
2023/02/23 13:01:40;;;;;;;19.55;10.30;;;;;;;12.22;75.90;99969.13;5033324;28;20029;-64
2023/02/23 13:04:44;;;;;;;19.40;9.88;;;;;;;12.29;75.34;99962.13;5032591;28;20120;-64